AAL207 LIMC-KMIA
Flight info
| Callsign | AAL207 |
|---|---|
| Flight time | N/A |
| Altitude | 36000 |
| Route | AOSTA DCT ORSUD DCT MOLUS DCT IBODI DCT GOTED DCT TRO DCT AMODO DCT COHPA UM729 RESMI UN491 LGL UN502 JSY DCT LIZAD DCT GAPLI/M081F360 DCT DINIM DCT 52N020W 53N030W 53N040W 52N050W DCT TUDEP/N0463F360 N530A MIILS/N0476F400 DCT BEEKN Q97 KALDA Q101 SKARP Y313 HOAGG BNFSH3 |
| Aircraft | B772/H-SDE2E3FGHIJ5LORVWXY/LB1D1 |
Departure
| Time | 2026-04-30 19:34 |
|---|---|
| Airport | Milan Malpensa International Airport (LIMC) |
Arrival
| Time | N/A |
|---|---|
| Airport | Miami International Airport (KMIA) |
| Time | Latitude | Longitude | Altitude | Speed | Heading |
|---|---|---|---|---|---|
| 2026-04-30 19:00 | 45.63177 | 8.71458 | 741 ft | 0 kts | 199° |
| 2026-04-30 19:16 | 45.63178 | 8.71459 | 745 ft | 2 kts | 199° |
| 2026-04-30 19:16 | 45.63203 | 8.71468 | 744 ft | 4 kts | 185° |
| 2026-04-30 19:16 | 45.63245 | 8.71462 | 740 ft | 4 kts | 111° |
| 2026-04-30 19:17 | 45.63248 | 8.71447 | 740 ft | 3 kts | 101° |
| 2026-04-30 19:17 | 45.63255 | 8.71514 | 741 ft | 0 kts | 79° |
| 2026-04-30 19:20 | 45.63259 | 8.71542 | 742 ft | 6 kts | 79° |
| 2026-04-30 19:21 | 45.63272 | 8.71634 | 742 ft | 12 kts | 79° |
| 2026-04-30 19:21 | 45.63245 | 8.71867 | 741 ft | 14 kts | 165° |
| 2026-04-30 19:22 | 45.63056 | 8.71918 | 741 ft | 14 kts | 169° |
| 2026-04-30 19:22 | 45.62767 | 8.71999 | 744 ft | 15 kts | 169° |
| 2026-04-30 19:23 | 45.62457 | 8.72085 | 743 ft | 15 kts | 169° |
| 2026-04-30 19:24 | 45.62250 | 8.72142 | 742 ft | 15 kts | 169° |
| 2026-04-30 19:24 | 45.62147 | 8.72170 | 745 ft | 15 kts | 169° |
| 2026-04-30 19:24 | 45.61918 | 8.72232 | 743 ft | 19 kts | 169° |
| 2026-04-30 19:25 | 45.61509 | 8.72345 | 743 ft | 20 kts | 169° |
| 2026-04-30 19:26 | 45.61350 | 8.72199 | 743 ft | 16 kts | 211° |
| 2026-04-30 19:26 | 45.61120 | 8.72253 | 742 ft | 18 kts | 169° |
| 2026-04-30 19:26 | 45.60984 | 8.72290 | 743 ft | 22 kts | 169° |
| 2026-04-30 19:27 | 45.60688 | 8.72376 | 742 ft | 19 kts | 154° |
| 2026-04-30 19:27 | 45.60621 | 8.72732 | 746 ft | 19 kts | 96° |
| 2026-04-30 19:28 | 45.60607 | 8.72922 | 743 ft | 19 kts | 95° |
| 2026-04-30 19:28 | 45.60640 | 8.73275 | 742 ft | 19 kts | 28° |
| 2026-04-30 19:29 | 45.60881 | 8.73403 | 744 ft | 17 kts | 6° |
| 2026-04-30 19:29 | 45.60990 | 8.73381 | 745 ft | 14 kts | 348° |
| 2026-04-30 19:30 | 45.61287 | 8.73298 | 742 ft | 14 kts | 349° |
| 2026-04-30 19:30 | 45.61453 | 8.73253 | 744 ft | 12 kts | 349° |
| 2026-04-30 19:31 | 45.61585 | 8.73224 | 744 ft | 8 kts | 9° |
| 2026-04-30 19:31 | 45.61618 | 8.73287 | 742 ft | 8 kts | 76° |
| 2026-04-30 19:31 | 45.61631 | 8.73414 | 743 ft | 9 kts | 95° |
| 2026-04-30 19:32 | 45.61607 | 8.73490 | 742 ft | 8 kts | 118° |
| 2026-04-30 19:32 | 45.61588 | 8.73569 | 744 ft | 8 kts | 99° |
| 2026-04-30 19:32 | 45.61589 | 8.73653 | 744 ft | 8 kts | 83° |
| 2026-04-30 19:32 | 45.61610 | 8.73730 | 741 ft | 8 kts | 47° |
| 2026-04-30 19:33 | 45.61639 | 8.73732 | 741 ft | 0 kts | 345° |
| 2026-04-30 19:33 | 45.61673 | 8.73719 | 741 ft | 19 kts | 345° |
| 2026-04-30 19:33 | 45.62034 | 8.73620 | 740 ft | 87 kts | 349° |
| 2026-04-30 19:34 | 45.62832 | 8.73401 | 742 ft | 146 kts | 349° |
| 2026-04-30 19:34 | 45.63977 | 8.73086 | 968 ft | 174 kts | 349° |
| 2026-04-30 19:34 | 45.66450 | 8.72663 | 2263 ft | 187 kts | 360° |
| 2026-04-30 19:35 | 45.67800 | 8.72642 | 2603 ft | 205 kts | 0° |
| 2026-04-30 19:35 | 45.69282 | 8.72627 | 2772 ft | 222 kts | 0° |
| 2026-04-30 19:35 | 45.70864 | 8.72609 | 3092 ft | 229 kts | 359° |
| 2026-04-30 19:35 | 45.72426 | 8.72105 | 3375 ft | 235 kts | 326° |
| 2026-04-30 19:36 | 45.73473 | 8.70349 | 3813 ft | 235 kts | 289° |
| 2026-04-30 19:36 | 45.73640 | 8.68071 | 4287 ft | 232 kts | 257° |
| 2026-04-30 19:36 | 45.72512 | 8.63740 | 5109 ft | 237 kts | 247° |
| 2026-04-30 19:37 | 45.71892 | 8.61555 | 5621 ft | 237 kts | 248° |
| 2026-04-30 19:37 | 45.71215 | 8.59390 | 5985 ft | 243 kts | 240° |
| 2026-04-30 19:37 | 45.70288 | 8.57265 | 6145 ft | 260 kts | 237° |
| 2026-04-30 19:37 | 45.69274 | 8.55050 | 6505 ft | 270 kts | 237° |
| 2026-04-30 19:38 | 45.68243 | 8.52759 | 6920 ft | 277 kts | 238° |
| 2026-04-30 19:38 | 45.67204 | 8.50453 | 7430 ft | 280 kts | 237° |
| 2026-04-30 19:38 | 45.66162 | 8.48132 | 8151 ft | 272 kts | 238° |
| 2026-04-30 19:38 | 45.65146 | 8.45858 | 8721 ft | 272 kts | 238° |
| 2026-04-30 19:39 | 45.64126 | 8.43572 | 9216 ft | 273 kts | 238° |
| 2026-04-30 19:39 | 45.63099 | 8.41268 | 9680 ft | 275 kts | 238° |
| 2026-04-30 19:39 | 45.61986 | 8.39030 | 10061 ft | 279 kts | 231° |
| 2026-04-30 19:39 | 45.60717 | 8.36907 | 10406 ft | 284 kts | 230° |
| 2026-04-30 19:40 | 45.59412 | 8.34755 | 10867 ft | 289 kts | 230° |
| 2026-04-30 19:40 | 45.58247 | 8.32439 | 11309 ft | 288 kts | 250° |
| 2026-04-30 19:40 | 45.57988 | 8.29647 | 11731 ft | 285 kts | 282° |
| 2026-04-30 19:40 | 45.58322 | 8.27851 | 12065 ft | 281 kts | 292° |
| 2026-04-30 19:41 | 45.59166 | 8.24316 | 12795 ft | 285 kts | 291° |
| 2026-04-30 19:41 | 45.59788 | 8.21640 | 13493 ft | 283 kts | 290° |
| 2026-04-30 19:41 | 45.60411 | 8.18960 | 14107 ft | 285 kts | 291° |
| 2026-04-30 19:41 | 45.61043 | 8.16249 | 14613 ft | 289 kts | 291° |
| 2026-04-30 19:42 | 45.61471 | 8.14412 | 14988 ft | 290 kts | 291° |
| 2026-04-30 19:42 | 45.62103 | 8.11692 | 15559 ft | 292 kts | 291° |
| 2026-04-30 19:42 | 45.62743 | 8.08929 | 16132 ft | 295 kts | 291° |
| 2026-04-30 19:42 | 45.63603 | 8.05213 | 16854 ft | 300 kts | 291° |
| 2026-04-30 19:43 | 45.64055 | 8.03262 | 16986 ft | 311 kts | 291° |
| 2026-04-30 19:43 | 45.64744 | 8.00277 | 17406 ft | 321 kts | 290° |
| 2026-04-30 19:43 | 45.65448 | 7.97213 | 17961 ft | 327 kts | 290° |
| 2026-04-30 19:44 | 45.66871 | 7.91019 | 19164 ft | 332 kts | 290° |
| 2026-04-30 19:44 | 45.67593 | 7.87859 | 19728 ft | 335 kts | 290° |
| 2026-04-30 19:44 | 45.68318 | 7.84679 | 20284 ft | 338 kts | 291° |
| 2026-04-30 19:44 | 45.69053 | 7.81452 | 20696 ft | 345 kts | 290° |
| 2026-04-30 19:45 | 45.69801 | 7.78164 | 21200 ft | 348 kts | 290° |
| 2026-04-30 19:45 | 45.70550 | 7.74861 | 21800 ft | 349 kts | 290° |
| 2026-04-30 19:45 | 45.71301 | 7.71544 | 22242 ft | 353 kts | 290° |
| 2026-04-30 19:45 | 45.72065 | 7.68166 | 22698 ft | 357 kts | 290° |
| 2026-04-30 19:46 | 45.72834 | 7.64771 | 23186 ft | 360 kts | 290° |
| 2026-04-30 19:46 | 45.73602 | 7.61373 | 23679 ft | 363 kts | 290° |
| 2026-04-30 19:46 | 45.74388 | 7.57892 | 23967 ft | 373 kts | 290° |
| 2026-04-30 19:46 | 45.75199 | 7.54299 | 24041 ft | 387 kts | 290° |
| 2026-04-30 19:47 | 45.76038 | 7.50561 | 24150 ft | 401 kts | 290° |
| 2026-04-30 19:47 | 45.76607 | 7.48016 | 24191 ft | 410 kts | 290° |
| 2026-04-30 19:47 | 45.77800 | 7.42682 | 24383 ft | 427 kts | 290° |
| 2026-04-30 19:47 | 45.78720 | 7.38594 | 24674 ft | 433 kts | 291° |
| 2026-04-30 19:48 | 45.80045 | 7.34746 | 24882 ft | 433 kts | 310° |
| 2026-04-30 19:48 | 45.82193 | 7.31759 | 25366 ft | 428 kts | 327° |
| 2026-04-30 19:48 | 45.84627 | 7.29407 | 25821 ft | 429 kts | 328° |
| 2026-04-30 19:48 | 45.87099 | 7.26989 | 26302 ft | 432 kts | 327° |
| 2026-04-30 19:49 | 45.89575 | 7.24516 | 26784 ft | 434 kts | 327° |
| 2026-04-30 19:49 | 45.94541 | 7.19485 | 27691 ft | 439 kts | 327° |
| 2026-04-30 19:49 | 45.97050 | 7.16933 | 28127 ft | 442 kts | 326° |
| 2026-04-30 19:50 | 45.99570 | 7.14356 | 28540 ft | 444 kts | 326° |
| 2026-04-30 19:50 | 46.02098 | 7.11759 | 28858 ft | 448 kts | 326° |
| 2026-04-30 19:50 | 46.04617 | 7.09171 | 29192 ft | 452 kts | 326° |
| 2026-04-30 19:50 | 46.07192 | 7.06523 | 29564 ft | 455 kts | 326° |
| 2026-04-30 19:51 | 46.09775 | 7.03862 | 29932 ft | 457 kts | 326° |
| 2026-04-30 19:51 | 46.12377 | 7.01177 | 30301 ft | 459 kts | 326° |
| 2026-04-30 19:51 | 46.14981 | 6.98489 | 30607 ft | 461 kts | 326° |
| 2026-04-30 19:51 | 46.17598 | 6.95783 | 30871 ft | 464 kts | 326° |
| 2026-04-30 19:52 | 46.20221 | 6.93069 | 31178 ft | 465 kts | 326° |
| 2026-04-30 19:52 | 46.22855 | 6.90341 | 31498 ft | 466 kts | 326° |
| 2026-04-30 19:52 | 46.25493 | 6.87607 | 31781 ft | 467 kts | 326° |
| 2026-04-30 19:52 | 46.28108 | 6.84894 | 32005 ft | 468 kts | 326° |
| 2026-04-30 19:53 | 46.30761 | 6.82135 | 32172 ft | 470 kts | 326° |
| 2026-04-30 19:53 | 46.33423 | 6.79363 | 32289 ft | 474 kts | 326° |
| 2026-04-30 19:53 | 46.36112 | 6.76561 | 32406 ft | 478 kts | 326° |
| 2026-04-30 19:53 | 46.38819 | 6.73738 | 32678 ft | 478 kts | 326° |
| 2026-04-30 19:54 | 46.41513 | 6.70924 | 33056 ft | 476 kts | 326° |
| 2026-04-30 19:54 | 46.44156 | 6.68043 | 33432 ft | 474 kts | 322° |
| 2026-04-30 19:54 | 46.46593 | 6.64814 | 33782 ft | 475 kts | 316° |
| 2026-04-30 19:54 | 46.48873 | 6.61348 | 34082 ft | 474 kts | 316° |
| 2026-04-30 19:55 | 46.51138 | 6.57863 | 34342 ft | 474 kts | 316° |
| 2026-04-30 19:55 | 46.53399 | 6.54385 | 34619 ft | 473 kts | 316° |
| 2026-04-30 19:55 | 46.55661 | 6.50918 | 34906 ft | 471 kts | 316° |
| 2026-04-30 19:55 | 46.57890 | 6.47519 | 35180 ft | 470 kts | 316° |
| 2026-04-30 19:56 | 46.60162 | 6.44063 | 35303 ft | 474 kts | 315° |
| 2026-04-30 19:56 | 46.62446 | 6.40593 | 35415 ft | 476 kts | 315° |
| 2026-04-30 19:56 | 46.64730 | 6.37120 | 35709 ft | 474 kts | 315° |
| 2026-04-30 19:56 | 46.67006 | 6.33654 | 36036 ft | 472 kts | 315° |
| 2026-04-30 19:57 | 46.69278 | 6.30189 | 36153 ft | 474 kts | 315° |
| 2026-04-30 19:57 | 46.71555 | 6.26712 | 36187 ft | 475 kts | 315° |
| 2026-04-30 19:57 | 46.76103 | 6.19748 | 36203 ft | 471 kts | 315° |
| 2026-04-30 19:58 | 46.80607 | 6.12835 | 36207 ft | 470 kts | 315° |
| 2026-04-30 19:58 | 46.85108 | 6.05909 | 36208 ft | 470 kts | 315° |
| 2026-04-30 19:59 | 46.89592 | 5.98992 | 36192 ft | 473 kts | 315° |
| 2026-04-30 20:00 | 46.96835 | 5.89211 | 36181 ft | 473 kts | 327° |
| 2026-04-30 20:00 | 47.02507 | 5.84380 | 36176 ft | 472 kts | 334° |
| 2026-04-30 20:01 | 47.11282 | 5.77758 | 36172 ft | 472 kts | 334° |
| 2026-04-30 20:01 | 47.17113 | 5.73284 | 36174 ft | 473 kts | 334° |
| 2026-04-30 20:02 | 47.25858 | 5.66506 | 36172 ft | 474 kts | 334° |
| 2026-04-30 20:03 | 47.34626 | 5.59685 | 36174 ft | 475 kts | 334° |
| 2026-04-30 20:03 | 47.40439 | 5.55149 | 36172 ft | 475 kts | 334° |
| 2026-04-30 20:04 | 47.46281 | 5.50581 | 36178 ft | 475 kts | 334° |
| 2026-04-30 20:05 | 47.54286 | 5.41989 | 36192 ft | 478 kts | 314° |
| 2026-04-30 20:05 | 47.60342 | 5.30148 | 36201 ft | 482 kts | 307° |
| 2026-04-30 20:06 | 47.64269 | 5.22072 | 36199 ft | 484 kts | 307° |
| 2026-04-30 20:06 | 47.68215 | 5.14035 | 36193 ft | 484 kts | 307° |
| 2026-04-30 20:07 | 47.72199 | 5.05949 | 36196 ft | 484 kts | 307° |
| 2026-04-30 20:08 | 47.78171 | 4.93800 | 36199 ft | 485 kts | 307° |
| 2026-04-30 20:08 | 47.82150 | 4.85671 | 36193 ft | 486 kts | 307° |
| 2026-04-30 20:09 | 47.86097 | 4.77579 | 36190 ft | 486 kts | 307° |
| 2026-04-30 20:09 | 47.92037 | 4.65357 | 36190 ft | 485 kts | 306° |